Bewolking Meer informatie Parkstad Weather Satellite


Neerslagradar Meer informatie Parkstad Rain Snow Radar


Onweersbuien Meer informatie Parkstad Lighntning


24/7 Weercamera Meer informatie Parkstad Weathercam


Natuurbrandrisico
CBI






Het weer levert geen direct gevaar op in Parkstad.    Er zijn geen waarschuwingen afgegeven voor Parkstad (045)

METAR rapporten vliegvelden

   
EHAM - Amsterdam
Gewijzigd: 17-09-2021 18:55
Helder  
Helder  
   Wind: WNW 11.1 km/h
Wind: WNW 11.1 km/h
Temperatuur: 18°C
Dauwpunt: 14°C
Vochtigheid: 78%
Barometer: 1015 hPa
Zicht: meer dan 10 km
Bewolking: Helder
EHAM 171655Z 29006KT 260V320 CAVOK 18/14 Q1015 NOSIG
EBAW - Antwerpen
Gewijzigd: 17-09-2021 18:50
Licht bewolkt  
Licht bewolkt  
   Wind: ONO 5.6 km/h
Wind: ONO 5.6 km/h
Temperatuur: 20°C
Dauwpunt: 13°C
Vochtigheid: 64%
Barometer: 1015 hPa
Satelliet beelden: Licht bewolkt
Zicht: meer dan 10 km
Bewolking: Licht bewolkt 1219 m
EBAW 171650Z 06003KT 350V140 9999 FEW040 20/13 Q1015 NOSIG
EGLL - London
Gewijzigd: 17-09-2021 18:50
Wat regen mogelijk, Grotendeels bewolkt  
Wat regen mogelijk, Grotendeels bewolkt  
   Wind: Zuiden 14.8 km/h
Wind: Zuiden 14.8 km/h
Temperatuur: 20°C
Dauwpunt: 12°C
Vochtigheid: 60%
Barometer: 1013 hPa
Satelliet beelden: Grotendeels bewolkt
Zicht: meer dan 10 km
Bewolking: Licht bewolkt 1128 m,
Grotendeels bewolkt 1463 m
EGLL 171650Z AUTO 18008KT 150V240 9999 -RA FEW037 BKN048 20/12 Q1013
ELLX - Luxemburg
Gewijzigd: 17-09-2021 18:50
Licht bewolkt  
Licht bewolkt  
   Wind: Oosten 7.4 km/h
Wind: Oosten 7.4 km/h
Temperatuur: 18°C
Dauwpunt: 12°C
Vochtigheid: 68%
Barometer: 1015 hPa
Satelliet beelden: Licht bewolkt
Zicht: meer dan 10 km
Bewolking: Licht bewolkt 1280 m
ELLX 171650Z 08004KT 9999 FEW042 18/12 Q1015 NOSIG
EDDM - München
Gewijzigd: 17-09-2021 18:50
Licht bewolkt  
Licht bewolkt  
   Wind: varieert 3.7 km/h
Wind: varieert 3.7 km/h
Temperatuur: 16°C
Dauwpunt: 11°C
Vochtigheid: 72%
Barometer: 1016 hPa
Satelliet beelden: Licht bewolkt
Zicht: meer dan 10 km
Bewolking: Licht bewolkt 1097 m
EDDM 171650Z VRB02KT 9999 FEW036 16/11 Q1016 NOSIG
LFPO - Parijs
Gewijzigd: 17-09-2021 19:00
Licht bewolkt  
Licht bewolkt  
   Wind: OZO 9.3 km/h
Wind: OZO 9.3 km/h
Temperatuur: 22°C
Dauwpunt: 11°C
Vochtigheid: 50%
Barometer: 1014 hPa
Satelliet beelden: Licht bewolkt
Zicht: meer dan 10 km
Bewolking: Licht bewolkt 1341 m
LFPO 171700Z 12005KT 090V150 9999 FEW044 22/11 Q1014 NOSIG
EDDL - Düsseldorf
Gewijzigd: 17-09-2021 18:50
Licht bewolkt  
Licht bewolkt  
   Wind: Westen 7.4 km/h
Wind: Westen 7.4 km/h
Temperatuur: 20°C
Dauwpunt: 13°C
Vochtigheid: 64%
Barometer: 1015 hPa
Satelliet beelden: Licht bewolkt
Zicht: meer dan 10 km
Bewolking: Licht bewolkt 1036 m
EDDL 171650Z 26004KT 9999 FEW034 20/13 Q1015 NOSIG
EDDK - Köln/Bonn Duitsland
Gewijzigd: 17-09-2021 18:50
Licht bewolkt  
Licht bewolkt  
   Wind: OZO 1.9 km/h
Wind: OZO 1.9 km/h
Temperatuur: 19°C
Dauwpunt: 15°C
Vochtigheid: 78%
Barometer: 1015 hPa
Satelliet beelden: Licht bewolkt
Zicht: meer dan 10 km
Bewolking: Licht bewolkt 914 m
EDDK 171650Z 12001KT 9999 FEW030 19/15 Q1015 NOSIG
TNCA - Oranjestad Aruba
Gewijzigd: 17-09-2021 19:00
Gedeeltelijk bewolkt  
Gedeeltelijk bewolkt  
   Wind: Oosten 33.3 km/h
Wind: Oosten 33.3 km/h
Temperatuur: 32°C
Gevoelstemperatuur: 39°C
Dauwpunt: 25°C
Vochtigheid: 67%
Barometer: 1014 hPa
Satelliet beelden: Gedeeltelijk bewolkt
Zicht: meer dan 10 km
Bewolking: Gedeeltelijk bewolkt 853 m
TNCA 171700Z 10018KT 9999 SCT028 32/25 Q1014 NOSIG
TNCC - Willemstad Curacao
Gewijzigd: 17-09-2021 19:00
Licht bewolkt  
Licht bewolkt  
   Wind: Oosten 25.9 km/h
Wind: Oosten 25.9 km/h
Temperatuur: 32°C
Gevoelstemperatuur: 39°C
Dauwpunt: 25°C
Vochtigheid: 67%
Barometer: 1014 hPa
Satelliet beelden: Licht bewolkt
Zicht: meer dan 10 km
Bewolking: Licht bewolkt 793 m
TNCC 171700Z 09014KT 9999 FEW026 32/25 Q1014 NOSIG
LEAL - La Nucia Spanje
Gewijzigd: 17-09-2021 19:00
Helder  
Helder  
   Wind: Zuiden 13 km/h
Wind: Zuiden 13 km/h
Temperatuur: 27°C
Gevoelstemperatuur: 28°C
Dauwpunt: 20°C
Vochtigheid: 66%
Barometer: 1013 hPa
Zicht: meer dan 10 km
Bewolking: Helder
LEAL 171700Z 17007KT 120V220 CAVOK 27/20 Q1013 NOSIG
 

Script ontwikkeld door  Saratoga-weather.org Aangepast voor de template door  Weerstation Leuven

U vindt ons ook hier:

Het Weer Aktueel

WOW Nederland KNMI

Vereniging voor Weerkunde en Klimatologie

UK Met Office Weather Observation Website (WOW)

WeatherCloud

Weather Underground

Awekas

MeteoMap.Cloud

HAMweather, WeatherForYou, PWS Weather

Citizen Weather Observer Program (CWOP)

Apparatuur in gebruik:

Hardwareleverancier
Weerhuisje

Weerstation
Vantage Pro2+ UV

Weercomputer's
alix3d2 & wl330n

Weerprogramma's
Smartbedded

Satelliet NOAA's
WRX137 & KX137

Satelliet Eumetsat
Ayecka SR1 & Triax

Bliksemdetectie
Boltek StormTracker

Webleverancier
F-Service

Weerhuisje

Vantage Pro2+ UV

alix3d2 & wl330n

Smartbedded

WRX137 & KX137

Ayecka SR1 & Triax

Boltek StormTracker

F-Service